EBAW/ANR METAR and TAF weather

Enter ICAO airport designator
Station Type Date Time Source
EBAW METAR 2018/07/21 03:50 UTC NOAA

EBAW 210350Z AUTO 34004KT CAVOK 19/14 Q1011


Station Type Date Time Source
EBAW Decoded METAR 2018/07/21 03:50 UTC NOAA

Antwerpen / Deurne, Belgium (EBAW) 51-12N 004-28E 14M
Jul 20, 2018 - 11:50 PM EDT / 2018.07.21 0350 UTC
Wind: from the NNW (340 degrees) at 5 MPH (4 KT):0
Visibility: greater than 7 mile(s):0
Temperature: 66 F (19 C)
Dew Point: 57 F (14 C)
Relative Humidity: 72%
Pressure (altimeter): 29.85 in. Hg (1011 hPa)
ob: EBAW 210350Z AUTO 34004KT CAVOK 19/14 Q1011
cycle: 4

Station Type Date Time Source
EBAW TAF 2017/09/10 00:27 UTC NOAA

TAF TAF EBAW 102310Z 1100/1112 22015G25KT 9999 SCT015 BKN020 PROB30
TEMPO 1100/1101 4000 RA BKN012 PROB40
TEMPO 1111/1112 21020G35KT 1500 +SHRA TSRA SCT008 BKN012CB


Example: see airport list